< < Back
Terminal Aerodrome Forecast


Current Version              Previous Versions:   1  2  3  4  5  6  7  8  9  

Terminal Aerodrome Forecast

163
FTUS42 KJAX 292320
TAFJAX
TAF
KJAX 292320Z 3000/3024 24006KT P6SM VCTS FEW060CB SCT200
     FM300300 24004KT P6SM FEW050 SCT250
     FM301300 27005KT P6SM FEW035=

Latest METAR

033
SAUS80 KWBC 301100
MTRJAX
METAR KJAX 301056Z 25005KT 10SM FEW100 FEW250 24/24 A3001 RMK AO2 SLP163
T02440239


USA.gov is the U.S. government's official web portal to all federal, state and local government web resources and services.